Bremen — C6JC3 — position and weather

sailwx.info

Track history (hours):
 
Tides and Currents Weather Stations Pressure Air Temp Water Temp Dewpoint Dewpoint Depression Visibility Wind Speed Wind Dir Waves Ship Positions

Bremen

Operator: Hapag-Lloyd Container Line

Last reported at 2017-Aug-09 14:10 UTC. Time now 2017-Aug-20 15:37 UTC.
Position N 58°16' W 136°00'.
Warning: this ship's position is 11 days out of date.

Length 111.5 m; beam 17 m; draft 4.8 m.

Type: Ship. MMSI: 308429000.

Date/timePositionNaut miles runAvg speedWind from/ knotsBaromVisibWave heightAir tempDewpointWater temp
2017-Aug-09 14:10N 58°16' W 136°00'211.6
2017-Aug-09 14:00N 58°16' W 135°57'713.4
2017-Aug-09 13:30N 58°19' W 135°45'  
2017-Aug-02 17:31N 52°37' W 128°32'112.0
2017-Aug-02 17:27N 52°37' W 128°31'3 7.4
2017-Aug-02 17:00N 52°33' W 128°30'611.6
2017-Aug-02 16:30N 52°28' W 128°27'613.0
2017-Aug-02 16:00N 52°22' W 128°32'612.1
2017-Aug-02 15:30N 52°17' W 128°27'712.8
2017-Aug-02 14:59N 52°15' W 128°17'8 8.1
2017-Aug-02 14:01N 52°09' W 128°08'5 9.4
2017-Aug-02 13:30N 52°05' W 128°05'510.3
2017-Aug-02 13:00N 52°04' W 127°56'3 7.0
2017-Aug-02 12:30N 52°01' W 127°55'4 7.0
2017-Aug-02 12:00N 51°57' W 127°56'3 6.8
2017-Aug-02 11:30N 51°54' W 127°56'3 6.2
2017-Aug-02 11:00N 51°51' W 127°56'3 6.3
2017-Aug-02 10:30N 51°47' W 127°56'3 6.9
2017-Aug-02 10:00N 51°44' W 127°55'3 6.7
2017-Aug-02 09:30N 51°41' W 127°55'3 6.8
2017-Aug-02 09:01N 51°37' W 127°54'3 6.4
2017-Aug-02 08:31N 51°34' W 127°52'3 6.5
2017-Aug-02 08:00N 51°31' W 127°51'3 6.6
2017-Aug-02 07:30N 51°28' W 127°51'3 6.2
2017-Aug-02 07:00N 51°25' W 127°51'4 8.1
2017-Aug-02 06:30N 51°21' W 127°52'4 8.4
2017-Aug-02 06:00N 51°16' W 127°53'4 8.4
2017-Aug-02 05:30N 51°12' W 127°53'3 7.0
2017-Aug-02 05:00N 51°09' W 127°54'3 6.9
2017-Aug-02 04:30N 51°05' W 127°53'3 7.0
2017-Aug-02 04:01N 51°02' W 127°51'4 7.1
2017-Aug-02 03:30N 50°60' W 127°47'4 7.3
2017-Aug-02 03:00N 50°57' W 127°43'3 7.0
2017-Aug-02 02:30N 50°55' W 127°39'4 7.0
2017-Aug-02 02:00N 50°53' W 127°35'200 6.4
2017-Jul-31 19:00N 49°12' W 123°06'   1023.010.8
Track history (hours):
 
Tides and Currents Weather Stations Pressure Air Temp Water Temp Dewpoint Dewpoint Depression Visibility Wind Speed Wind Dir Waves Ship Positions

Bremen

Operator: Hapag-Lloyd Container Line

Last reported at 2017-Aug-09 14:10 UTC. Time now 2017-Aug-20 15:37 UTC.
Position N 58°16' W 136°00'.
Warning: this ship's position is 11 days out of date.

Length 111.5 m; beam 17 m; draft 4.8 m.

Type: Ship. MMSI: 308429000.

Date/timePositionNaut miles runAvg speedWind from/ knotsBaromVisibWave heightAir tempDewpointWater temp
2017-Aug-09 14:10N 58°16' W 136°00'211.6
2017-Aug-09 14:00N 58°16' W 135°57'713.4
2017-Aug-09 13:30N 58°19' W 135°45'  
2017-Aug-02 17:31N 52°37' W 128°32'112.0
2017-Aug-02 17:27N 52°37' W 128°31'3 7.4
2017-Aug-02 17:00N 52°33' W 128°30'611.6
2017-Aug-02 16:30N 52°28' W 128°27'613.0
2017-Aug-02 16:00N 52°22' W 128°32'612.1
2017-Aug-02 15:30N 52°17' W 128°27'712.8
2017-Aug-02 14:59N 52°15' W 128°17'8 8.1
2017-Aug-02 14:01N 52°09' W 128°08'5 9.4
2017-Aug-02 13:30N 52°05' W 128°05'510.3
2017-Aug-02 13:00N 52°04' W 127°56'3 7.0
2017-Aug-02 12:30N 52°01' W 127°55'4 7.0
2017-Aug-02 12:00N 51°57' W 127°56'3 6.8
2017-Aug-02 11:30N 51°54' W 127°56'3 6.2
2017-Aug-02 11:00N 51°51' W 127°56'3 6.3
2017-Aug-02 10:30N 51°47' W 127°56'3 6.9
2017-Aug-02 10:00N 51°44' W 127°55'3 6.7
2017-Aug-02 09:30N 51°41' W 127°55'3 6.8
2017-Aug-02 09:01N 51°37' W 127°54'3 6.4
2017-Aug-02 08:31N 51°34' W 127°52'3 6.5
2017-Aug-02 08:00N 51°31' W 127°51'3 6.6
2017-Aug-02 07:30N 51°28' W 127°51'3 6.2
2017-Aug-02 07:00N 51°25' W 127°51'4 8.1
2017-Aug-02 06:30N 51°21' W 127°52'4 8.4
2017-Aug-02 06:00N 51°16' W 127°53'4 8.4
2017-Aug-02 05:30N 51°12' W 127°53'3 7.0
2017-Aug-02 05:00N 51°09' W 127°54'3 6.9
2017-Aug-02 04:30N 51°05' W 127°53'3 7.0
2017-Aug-02 04:01N 51°02' W 127°51'4 7.1
2017-Aug-02 03:30N 50°60' W 127°47'4 7.3
2017-Aug-02 03:00N 50°57' W 127°43'3 7.0
2017-Aug-02 02:30N 50°55' W 127°39'4 7.0
2017-Aug-02 02:00N 50°53' W 127°35'200 6.4
2017-Jul-31 19:00N 49°12' W 123°06'   1023.010.8

Dump ship's entire track history